Hauptseite
METAR-TAF:

METAR-TAF

Flughäfen :

Flughafen Rankin Inlet

Rankin Inlet, Nunavut, Kanada

Breite: 62-49N, Länge: 092-07W, Höhe: 31 m

Beobachtung

Neuester Wetterbericht von vor 45 Minuten, um 04:00 UTC
Wind 10 kt aus West/Nordwest
Temperatur -20°C
Luftfeuchtigkeit 77%
Luftdruck 1015 hPa
Sichtweite: 24.1 km
Himmel klar

METAR: CYRT 260400Z 29010KT 15SM SKC M20/M23 A2997 RMK SLP155

Zeit: 23:45 (04:45 UTC)

Prognose

Neuester Wetterbericht von vor 5 Stunden und 7 Minuten, um 23:38 UTC
Gültige Prognose vom 26 um 00 UTC bis 26 um 12 UTC
Wind 18 kt aus Nordwest
Sichtweite: 10 km
Himmel klar
Übergehend zu
vom 26 um 02 UTC bis 26 um 04 UTC
Wind 10 kt aus West/Nordwest

TAF: CYRT 252338Z 2600/2612 32018KT P6SM SKC BECMG 2602/2604 30010KT RMK NXT FCST BY 260600Z

Wetterbeobachtungen und Prognosen von mehr als 4000 Flughäfen (METAR und TAF Bericht).

Die verfügbaren Stationen werden durch gelbe und rote Markierungen auf der Karte dargestellt.

Führen Sie die Maus auf sie, um den Namen der Station zu sehen.

Darauf klicken, um die Beobachtung von Wetterbeobachtungen und Prognosen zu sehen.

Um die Karte zu ändern : klicken Sie auf den grünen Tasten mit einem schwarzen Kreuz Zum Vergrößern, auf den grünen Button mit einem Gedankenstrich zu verkleinern, oder auf die grünen Pfeile für benachbarte Karten.


METAR-TAF: